createdAt,value
2023-05-22T00:00:10.654Z,13.20
2023-05-22T00:02:37.429Z,14.55
2023-05-22T00:05:04.989Z,13.80
2023-05-22T00:07:31.676Z,13.97
2023-05-22T00:09:58.406Z,15.80
2023-05-22T00:12:25.126Z,13.63
2023-05-22T00:14:52.118Z,15.43
2023-05-22T00:17:20.205Z,13.00
2023-05-22T00:19:47.026Z,14.10
2023-05-22T00:22:13.752Z,16.23
2023-05-22T00:24:40.480Z,14.05
2023-05-22T00:27:07.267Z,14.00
2023-05-22T00:29:33.982Z,15.40
2023-05-22T00:32:00.689Z,14.10
2023-05-22T00:34:28.817Z,14.85
2023-05-22T00:36:55.532Z,16.75
2023-05-22T00:39:22.255Z,14.05
2023-05-22T00:41:49.072Z,14.63
2023-05-22T00:44:15.754Z,15.53
2023-05-22T00:46:42.534Z,15.07
2023-05-22T00:49:09.283Z,14.98
2023-05-22T00:51:37.473Z,16.35
2023-05-22T00:54:05.566Z,16.17
2023-05-22T00:56:33.882Z,15.10
2023-05-22T00:59:00.741Z,15.43
2023-05-22T01:01:27.933Z,14.48
2023-05-22T01:03:55.104Z,14.80
2023-05-22T01:06:21.930Z,15.20
2023-05-22T01:08:50.320Z,15.87
2023-05-22T01:11:21.446Z,15.82
2023-05-22T01:13:56.215Z,14.88
2023-05-22T01:16:29.957Z,16.23
2023-05-22T01:19:01.938Z,14.80
2023-05-22T01:21:36.575Z,14.63
2023-05-22T01:24:24.505Z,15.23
2023-05-22T01:27:20.070Z,17.05
2023-05-22T01:29:51.872Z,16.88
2023-05-22T01:32:22.854Z,15.90
2023-05-22T01:34:54.179Z,15.30
2023-05-22T01:37:21.490Z,15.85
2023-05-22T01:39:48.847Z,14.73
2023-05-22T01:42:15.638Z,15.98
2023-05-22T01:44:42.337Z,14.40
2023-05-22T01:47:09.060Z,20.07
2023-05-22T01:49:37.562Z,15.68
2023-05-22T01:52:10.733Z,15.20
2023-05-22T01:54:59.307Z,15.60
2023-05-22T01:57:28.886Z,15.10
2023-05-22T02:00:02.655Z,15.43
2023-05-22T02:02:30.357Z,14.80
2023-05-22T02:05:00.788Z,16.30
2023-05-22T02:07:28.891Z,14.65
2023-05-22T02:09:56.608Z,16.95
2023-05-22T02:12:23.572Z,16.40
2023-05-22T02:14:51.246Z,13.95
2023-05-22T02:17:18.124Z,15.40
2023-05-22T02:19:44.930Z,17.33
2023-05-22T02:22:13.124Z,16.50
2023-05-22T02:24:41.834Z,15.07
2023-05-22T02:27:08.598Z,16.92
2023-05-22T02:29:35.402Z,15.85
2023-05-22T02:32:02.101Z,15.13
2023-05-22T02:34:29.118Z,14.50
2023-05-22T02:36:55.821Z,14.37
2023-05-22T02:39:24.264Z,17.77
2023-05-22T02:41:50.946Z,17.45
2023-05-22T02:44:17.670Z,18.75
2023-05-22T02:46:44.382Z,15.77
2023-05-22T02:49:11.175Z,15.83
2023-05-22T02:51:37.869Z,16.85
2023-05-22T02:54:04.985Z,18.48
2023-05-22T02:56:33.016Z,15.13
2023-05-22T02:59:00.008Z,15.52
2023-05-22T03:01:26.742Z,15.50
2023-05-22T03:03:53.541Z,15.90
2023-05-22T03:06:20.427Z,14.45
2023-05-22T03:08:47.192Z,15.63
2023-05-22T03:11:13.885Z,15.93
2023-05-22T03:13:42.335Z,16.67
2023-05-22T03:16:09.057Z,15.38
2023-05-22T03:18:35.760Z,15.07
2023-05-22T03:21:02.394Z,15.38
2023-05-22T03:23:29.046Z,13.95
2023-05-22T03:25:55.785Z,16.60
2023-05-22T03:28:22.493Z,14.65
2023-05-22T03:30:50.666Z,16.00
2023-05-22T03:33:17.423Z,16.63
2023-05-22T03:35:44.140Z,15.18
2023-05-22T03:38:10.843Z,15.70
2023-05-22T03:40:37.903Z,16.38
2023-05-22T03:43:04.890Z,17.05
2023-05-22T03:45:31.629Z,16.27
2023-05-22T03:47:59.900Z,17.35
2023-05-22T03:50:26.742Z,15.77
2023-05-22T03:52:53.473Z,16.02
2023-05-22T03:55:20.168Z,15.63
2023-05-22T03:57:46.799Z,15.65
2023-05-22T04:00:14.560Z,15.77
2023-05-22T04:02:41.356Z,14.57
2023-05-22T04:05:10.221Z,14.73
2023-05-22T04:07:37.029Z,14.50
2023-05-22T04:10:04.121Z,15.13
2023-05-22T04:12:31.200Z,16.90
2023-05-22T04:14:57.971Z,14.37
2023-05-22T04:17:30.737Z,15.60
2023-05-22T04:19:57.907Z,15.20
2023-05-22T04:22:26.249Z,14.48
2023-05-22T04:24:52.966Z,14.93
2023-05-22T04:27:19.968Z,14.70
2023-05-22T04:29:46.676Z,13.35
2023-05-22T04:32:13.401Z,16.00
2023-05-22T04:34:40.127Z,13.20
2023-05-22T04:37:06.789Z,14.88
2023-05-22T04:39:34.832Z,12.43
2023-05-22T04:42:01.579Z,15.00
2023-05-22T04:44:28.272Z,15.20
2023-05-22T04:46:55.007Z,12.10
2023-05-22T04:49:21.729Z,16.15
2023-05-22T04:51:48.433Z,14.50
2023-05-22T04:54:15.133Z,14.73
2023-05-22T04:56:43.176Z,13.27
2023-05-22T04:59:09.855Z,12.43
2023-05-22T05:01:36.752Z,12.73
2023-05-22T05:04:04.148Z,13.00
2023-05-22T05:06:30.937Z,12.32
2023-05-22T05:08:57.577Z,12.85
2023-05-22T05:11:24.324Z,12.50
2023-05-22T05:13:52.552Z,12.82
2023-05-22T05:16:19.589Z,13.17
2023-05-22T05:18:46.331Z,13.63
2023-05-22T05:21:13.021Z,15.13
2023-05-22T05:23:39.806Z,13.35
2023-05-22T05:26:06.495Z,14.50
2023-05-22T05:28:33.251Z,14.87
2023-05-22T05:31:01.359Z,12.82
2023-05-22T05:33:27.965Z,12.57
2023-05-22T05:35:54.908Z,12.55
2023-05-22T05:38:22.623Z,12.88
2023-05-22T05:40:49.403Z,12.67
2023-05-22T05:43:16.188Z,13.40
2023-05-22T05:45:43.413Z,12.95
2023-05-22T05:48:11.934Z,15.18
2023-05-22T05:50:39.202Z,15.25
2023-05-22T05:53:06.152Z,14.97
2023-05-22T05:55:34.570Z,15.07
2023-05-22T05:58:01.758Z,13.68
2023-05-22T06:00:28.601Z,14.68
2023-05-22T06:02:55.406Z,14.40
2023-05-22T06:05:23.633Z,14.00
2023-05-22T06:07:50.739Z,14.65
2023-05-22T06:10:17.433Z,15.40
2023-05-22T06:12:44.096Z,15.50
2023-05-22T06:15:10.861Z,14.63
2023-05-22T06:17:37.637Z,14.93
2023-05-22T06:20:05.381Z,14.32
2023-05-22T06:22:33.525Z,13.90
2023-05-22T06:25:00.328Z,14.38
2023-05-22T06:27:27.123Z,14.93
2023-05-22T06:29:54.249Z,12.13
2023-05-22T06:32:21.144Z,14.07
2023-05-22T06:34:48.960Z,15.88
2023-05-22T06:37:15.651Z,12.38
2023-05-22T06:39:43.910Z,16.35
2023-05-22T06:42:10.653Z,13.13
2023-05-22T06:44:37.464Z,14.95
2023-05-22T06:47:04.403Z,13.25
2023-05-22T06:49:31.101Z,12.98
2023-05-22T06:51:57.922Z,13.55
2023-05-22T06:54:24.628Z,13.57
2023-05-22T06:56:52.748Z,13.02
2023-05-22T06:59:20.996Z,14.68
2023-05-22T07:01:47.983Z,14.73
2023-05-22T07:04:14.918Z,12.25
2023-05-22T07:06:41.809Z,11.57
2023-05-22T07:09:09.430Z,15.32
2023-05-22T07:11:36.142Z,14.57
2023-05-22T07:14:04.319Z,15.95
2023-05-22T07:16:31.235Z,16.45
2023-05-22T07:18:58.096Z,15.83
2023-05-22T07:21:24.952Z,13.80
2023-05-22T07:23:51.812Z,13.13
2023-05-22T07:26:18.619Z,21.58
2023-05-22T07:28:45.351Z,15.25
2023-05-22T07:31:13.477Z,12.30
2023-05-22T07:33:40.164Z,12.30
2023-05-22T07:36:07.152Z,12.10
2023-05-22T07:38:33.916Z,13.27
2023-05-22T07:41:00.697Z,10.90
2023-05-22T07:43:27.633Z,13.23
2023-05-22T07:45:54.650Z,17.30
2023-05-22T07:48:22.718Z,14.13
2023-05-22T07:50:49.409Z,14.05
2023-05-22T07:53:16.127Z,12.70
2023-05-22T07:55:43.195Z,13.10
2023-05-22T07:58:09.850Z,10.35
2023-05-22T08:00:36.692Z,12.10
2023-05-22T08:03:03.984Z,13.45
2023-05-22T08:05:32.224Z,10.95
2023-05-22T08:07:59.292Z,13.67
2023-05-22T08:10:28.042Z,13.60
2023-05-22T08:12:56.992Z,10.88
2023-05-22T08:15:23.989Z,11.63
2023-05-22T08:17:51.025Z,11.80
2023-05-22T08:20:17.854Z,9.83
2023-05-22T08:22:46.696Z,10.82
2023-05-22T08:25:13.823Z,12.88
2023-05-22T08:27:40.596Z,12.05
2023-05-22T08:30:08.540Z,11.73
2023-05-22T08:32:35.357Z,10.73
2023-05-22T08:35:02.728Z,12.20
2023-05-22T08:37:29.444Z,12.05
2023-05-22T08:39:57.524Z,12.73
2023-05-22T08:42:24.621Z,11.63
2023-05-22T08:44:51.682Z,11.63
2023-05-22T08:47:19.086Z,12.15
2023-05-22T08:49:50.530Z,12.25
2023-05-22T08:52:22.717Z,12.32
2023-05-22T08:54:54.324Z,10.38
2023-05-22T08:57:23.710Z,12.63
2023-05-22T08:59:50.971Z,15.35
2023-05-22T09:02:18.500Z,12.43
2023-05-22T09:04:45.532Z,12.82
2023-05-22T09:07:12.274Z,13.02
2023-05-22T09:09:39.394Z,9.97
2023-05-22T09:12:09.131Z,10.35
2023-05-22T09:14:41.076Z,13.55
2023-05-22T09:17:09.294Z,12.20
2023-05-22T09:19:36.520Z,13.80
2023-05-22T09:22:03.863Z,13.33
2023-05-22T09:24:31.261Z,11.32
2023-05-22T09:27:03.048Z,12.38
2023-05-22T09:29:29.906Z,11.82
2023-05-22T09:31:59.729Z,11.05
2023-05-22T09:34:29.105Z,9.47
2023-05-22T09:37:01.865Z,11.20
2023-05-22T09:39:38.878Z,9.52
2023-05-22T09:42:06.354Z,11.13
2023-05-22T09:44:33.117Z,9.60
2023-05-22T09:47:01.248Z,14.80
2023-05-22T09:49:28.077Z,12.07
2023-05-22T09:51:55.428Z,12.38
2023-05-22T09:54:25.476Z,10.95
2023-05-22T09:56:57.622Z,9.68
2023-05-22T09:59:28.151Z,10.10
2023-05-22T10:01:55.627Z,9.65
2023-05-22T10:04:24.063Z,9.40
2023-05-22T10:06:53.248Z,10.75
2023-05-22T10:09:23.980Z,13.68
2023-05-22T10:11:55.354Z,10.80
2023-05-22T10:14:23.372Z,9.32
2023-05-22T10:16:50.640Z,9.50
2023-05-22T10:19:17.728Z,11.75
2023-05-22T10:21:47.708Z,11.75
2023-05-22T10:24:15.470Z,13.47
2023-05-22T10:26:43.922Z,10.18
2023-05-22T10:29:12.631Z,12.38
2023-05-22T10:31:44.518Z,10.07
2023-05-22T10:34:17.285Z,11.15
2023-05-22T10:37:00.437Z,17.07
2023-05-22T10:39:43.348Z,12.68
2023-05-22T10:42:13.861Z,10.65
2023-05-22T10:44:41.305Z,13.52
2023-05-22T10:47:09.676Z,10.73
2023-05-22T10:49:36.971Z,11.73
2023-05-22T10:52:08.494Z,10.45
2023-05-22T10:54:43.430Z,10.15
2023-05-22T10:57:11.386Z,11.85
2023-05-22T10:59:38.229Z,13.73
2023-05-22T11:02:06.503Z,9.70
2023-05-22T11:04:33.481Z,14.57
2023-05-22T11:07:06.137Z,9.48
2023-05-22T11:09:34.509Z,17.23
2023-05-22T11:12:23.781Z,13.23
2023-05-22T11:14:51.945Z,13.07
2023-05-22T11:17:21.325Z,11.82
2023-05-22T11:19:59.053Z,12.15
2023-05-22T11:22:35.645Z,11.73
2023-05-22T11:25:08.434Z,12.38
2023-05-22T11:27:35.197Z,10.47
2023-05-22T11:30:02.364Z,14.18
2023-05-22T11:32:29.410Z,12.20
2023-05-22T11:34:57.565Z,9.20
2023-05-22T11:37:24.500Z,9.70
2023-05-22T11:39:56.466Z,11.77
2023-05-22T11:42:23.350Z,10.43
2023-05-22T11:44:50.411Z,9.43
2023-05-22T11:47:17.254Z,9.75
2023-05-22T11:49:44.213Z,11.77
2023-05-22T11:52:13.682Z,9.80
2023-05-22T11:54:40.584Z,8.30
2023-05-22T11:57:09.438Z,10.55
2023-05-22T11:59:36.628Z,11.50
2023-05-22T12:02:03.483Z,9.90
2023-05-22T12:04:30.289Z,12.63
2023-05-22T12:06:57.195Z,9.23
2023-05-22T12:09:24.101Z,11.15
2023-05-22T12:11:50.797Z,9.98
2023-05-22T12:14:18.948Z,9.13
2023-05-22T12:16:46.263Z,9.63
2023-05-22T12:19:13.573Z,11.35
2023-05-22T12:21:40.573Z,10.70
2023-05-22T12:24:07.676Z,8.90
2023-05-22T12:26:34.490Z,8.77
2023-05-22T12:29:01.444Z,9.23
2023-05-22T12:31:34.270Z,9.88
2023-05-22T12:34:03.867Z,9.18
2023-05-22T12:36:35.157Z,8.75
2023-05-22T12:39:02.649Z,9.48
2023-05-22T12:41:29.448Z,10.10
2023-05-22T12:43:56.232Z,9.68
2023-05-22T12:46:22.885Z,11.20
2023-05-22T12:48:51.335Z,8.25
2023-05-22T12:51:19.985Z,8.85
2023-05-22T12:53:46.955Z,8.07
2023-05-22T12:56:13.734Z,10.85
2023-05-22T12:58:40.745Z,9.50
2023-05-22T13:01:07.544Z,10.23
2023-05-22T13:03:34.597Z,8.70
2023-05-22T13:06:02.868Z,8.17
2023-05-22T13:08:29.719Z,9.50
2023-05-22T13:10:56.772Z,8.32
2023-05-22T13:13:23.883Z,8.40
2023-05-22T13:15:50.869Z,9.48
2023-05-22T13:18:17.789Z,11.43
2023-05-22T13:20:44.826Z,9.32
2023-05-22T13:23:13.219Z,8.23
2023-05-22T13:25:40.292Z,8.70
2023-05-22T13:28:07.433Z,9.80
2023-05-22T13:30:34.453Z,8.63
2023-05-22T13:33:01.660Z,9.75
2023-05-22T13:35:28.586Z,26.02
2023-05-22T13:37:55.420Z,22.33
2023-05-22T13:40:24.890Z,12.13
2023-05-22T13:42:52.026Z,8.57
2023-05-22T13:45:19.182Z,8.77
2023-05-22T13:47:46.200Z,8.95
2023-05-22T13:50:13.392Z,9.55
2023-05-22T13:52:40.564Z,8.50
2023-05-22T13:55:08.038Z,8.97
2023-05-22T13:57:36.301Z,10.55
2023-05-22T14:00:03.306Z,10.77
2023-05-22T14:02:30.143Z,9.73
2023-05-22T14:04:57.095Z,7.85
2023-05-22T14:07:23.973Z,8.03
2023-05-22T14:09:51.017Z,8.43
2023-05-22T14:12:17.833Z,7.95
2023-05-22T14:14:46.332Z,7.88
2023-05-22T14:17:13.374Z,8.45
2023-05-22T14:19:40.427Z,9.83
2023-05-22T14:22:07.476Z,10.10
2023-05-22T14:24:34.637Z,7.78
2023-05-22T14:27:01.362Z,8.65
2023-05-22T14:29:28.229Z,11.20
2023-05-22T14:32:02.397Z,12.93
2023-05-22T14:34:29.245Z,15.40
2023-05-22T14:36:56.318Z,9.50
2023-05-22T14:39:23.335Z,8.02
2023-05-22T14:41:50.384Z,8.05
2023-05-22T14:44:17.422Z,9.33
2023-05-22T14:46:44.186Z,7.63
2023-05-22T14:49:12.349Z,8.20
2023-05-22T14:51:39.085Z,8.45
2023-05-22T14:54:05.901Z,11.93
2023-05-22T14:56:32.607Z,7.60
2023-05-22T14:58:59.227Z,8.68
2023-05-22T15:01:26.334Z,8.90
2023-05-22T15:03:53.418Z,9.00
2023-05-22T15:06:21.573Z,8.88
2023-05-22T15:08:48.392Z,8.50
2023-05-22T15:11:15.417Z,8.65
2023-05-22T15:13:42.100Z,9.05
2023-05-22T15:16:08.812Z,10.10
2023-05-22T15:18:35.534Z,7.47
2023-05-22T15:21:02.708Z,9.93
2023-05-22T15:23:30.870Z,8.32
2023-05-22T15:25:57.584Z,9.23
2023-05-22T15:28:24.393Z,8.57
2023-05-22T15:30:51.129Z,8.23
2023-05-22T15:33:17.877Z,8.53
2023-05-22T15:35:46.805Z,8.43
2023-05-22T15:38:13.594Z,10.13
2023-05-22T15:40:42.508Z,9.73
2023-05-22T15:43:09.571Z,8.93
2023-05-22T15:45:36.924Z,9.90
2023-05-22T15:48:04.034Z,10.07
2023-05-22T15:50:30.857Z,9.55
2023-05-22T15:52:57.578Z,8.48
2023-05-22T15:55:24.454Z,8.00
2023-05-22T15:57:52.771Z,8.67
2023-05-22T16:00:20.326Z,7.15
2023-05-22T16:02:47.150Z,7.72
2023-05-22T16:05:14.095Z,8.50
2023-05-22T16:07:40.848Z,8.27
2023-05-22T16:10:08.726Z,8.73
2023-05-22T16:12:35.752Z,10.18
2023-05-22T16:15:06.747Z,8.25
2023-05-22T16:17:33.970Z,8.77
2023-05-22T16:20:00.698Z,9.60
2023-05-22T16:22:40.003Z,7.90
2023-05-22T16:25:15.577Z,9.75
2023-05-22T16:27:42.303Z,9.90
2023-05-22T16:30:11.332Z,10.50
2023-05-22T16:32:38.388Z,9.43
2023-05-22T16:35:05.909Z,11.13
2023-05-22T16:37:33.093Z,9.05
2023-05-22T16:39:59.880Z,8.40
2023-05-22T16:42:26.676Z,9.15
2023-05-22T16:44:53.513Z,8.55
2023-05-22T16:47:22.079Z,9.63
2023-05-22T16:49:49.898Z,9.02
2023-05-22T16:52:16.846Z,8.38
2023-05-22T16:54:43.665Z,8.02
2023-05-22T16:57:10.483Z,7.88
2023-05-22T16:59:37.153Z,9.97
2023-05-22T17:02:04.330Z,9.43
2023-05-22T17:04:47.280Z,9.00
2023-05-22T17:07:14.151Z,9.52
2023-05-22T17:09:40.890Z,8.25
2023-05-22T17:12:07.792Z,8.63
2023-05-22T17:14:34.496Z,9.30
2023-05-22T17:17:01.284Z,9.60
2023-05-22T17:19:28.023Z,10.05
2023-05-22T17:21:56.277Z,8.82
2023-05-22T17:24:23.112Z,11.40
2023-05-22T17:26:50.132Z,9.00
2023-05-22T17:29:16.843Z,9.88
2023-05-22T17:31:43.592Z,9.38
2023-05-22T17:34:10.286Z,9.90
2023-05-22T17:36:37.125Z,8.50
2023-05-22T17:39:05.471Z,9.27
2023-05-22T17:41:32.276Z,9.43
2023-05-22T17:43:59.136Z,8.55
2023-05-22T17:46:26.218Z,9.32
2023-05-22T17:48:53.030Z,9.13
2023-05-22T17:51:19.794Z,7.40
2023-05-22T17:53:46.617Z,8.60
2023-05-22T17:56:14.860Z,8.75
2023-05-22T17:58:41.864Z,9.02
2023-05-22T18:01:08.559Z,9.17
2023-05-22T18:03:35.469Z,10.55
2023-05-22T18:06:02.250Z,8.45
2023-05-22T18:08:28.923Z,10.38
2023-05-22T18:10:55.739Z,9.43
2023-05-22T18:13:23.943Z,9.47
2023-05-22T18:15:50.669Z,10.77
2023-05-22T18:18:17.395Z,10.75
2023-05-22T18:20:44.142Z,8.45
2023-05-22T18:23:10.786Z,9.45
2023-05-22T18:25:37.464Z,8.90
2023-05-22T18:28:04.254Z,9.48
2023-05-22T18:30:32.375Z,9.80
2023-05-22T18:32:59.118Z,10.43
2023-05-22T18:35:25.971Z,10.18
2023-05-22T18:37:52.762Z,11.27
2023-05-22T18:40:19.490Z,10.43
2023-05-22T18:42:46.215Z,10.40
2023-05-22T18:45:12.957Z,11.00
2023-05-22T18:47:41.237Z,11.43
2023-05-22T18:50:08.931Z,9.13
2023-05-22T18:52:35.734Z,10.30
2023-05-22T18:55:02.512Z,10.82
2023-05-22T18:57:29.587Z,10.98
2023-05-22T18:59:56.334Z,9.98
2023-05-22T19:02:23.118Z,10.00
2023-05-22T19:04:51.666Z,10.73
2023-05-22T19:07:18.393Z,8.43
2023-05-22T19:09:45.557Z,9.95
2023-05-22T19:12:12.201Z,11.73
2023-05-22T19:14:38.954Z,11.43
2023-05-22T19:17:05.769Z,11.40
2023-05-22T19:19:32.694Z,11.10
2023-05-22T19:22:00.923Z,11.32
2023-05-22T19:24:27.619Z,9.98
2023-05-22T19:26:54.317Z,9.37
2023-05-22T19:29:21.027Z,10.82
2023-05-22T19:31:48.040Z,9.88
2023-05-22T19:34:14.997Z,13.95
2023-05-22T19:36:41.671Z,9.65
2023-05-22T19:39:09.721Z,10.73
2023-05-22T19:41:36.420Z,10.95
2023-05-22T19:44:03.271Z,10.93
2023-05-22T19:46:29.991Z,10.40
2023-05-22T19:48:56.995Z,9.35
2023-05-22T19:51:23.964Z,10.17
2023-05-22T19:53:50.712Z,13.05
2023-05-22T19:56:18.806Z,10.57
2023-05-22T19:58:45.467Z,14.73
2023-05-22T20:01:12.199Z,12.10
2023-05-22T20:03:39.113Z,11.50
2023-05-22T20:06:06.234Z,11.48
2023-05-22T20:08:32.979Z,10.98
2023-05-22T20:10:59.638Z,11.10
2023-05-22T20:13:27.765Z,11.40
2023-05-22T20:15:54.494Z,13.83
2023-05-22T20:18:21.254Z,10.93
2023-05-22T20:20:48.022Z,11.88
2023-05-22T20:23:14.730Z,12.82
2023-05-22T20:25:41.714Z,11.02
2023-05-22T20:28:08.617Z,11.40
2023-05-22T20:30:36.852Z,11.55
2023-05-22T20:33:03.889Z,12.65
2023-05-22T20:35:30.780Z,13.68
2023-05-22T20:38:00.535Z,12.18
2023-05-22T20:40:27.272Z,12.37
2023-05-22T20:42:53.911Z,11.20
2023-05-22T20:45:20.572Z,12.57
2023-05-22T20:47:49.021Z,11.45
2023-05-22T20:50:15.866Z,12.95
2023-05-22T20:52:42.663Z,13.87
2023-05-22T20:55:09.978Z,10.65
2023-05-22T20:57:36.663Z,11.50
2023-05-22T21:00:03.833Z,11.70
2023-05-22T21:02:30.675Z,12.85
2023-05-22T21:04:58.739Z,10.80
2023-05-22T21:07:25.544Z,11.80
2023-05-22T21:09:52.292Z,11.20
2023-05-22T21:12:18.936Z,10.25
2023-05-22T21:14:45.689Z,12.00
2023-05-22T21:17:12.807Z,11.90
2023-05-22T21:19:39.488Z,12.63
2023-05-22T21:22:07.722Z,10.63
2023-05-22T21:24:34.446Z,10.68
2023-05-22T21:27:01.163Z,11.68
2023-05-22T21:29:27.820Z,13.33
2023-05-22T21:31:54.653Z,13.10
2023-05-22T21:34:21.517Z,12.50
2023-05-22T21:36:49.047Z,12.27
2023-05-22T21:39:17.199Z,12.13
2023-05-22T21:41:44.031Z,11.50
2023-05-22T21:44:10.712Z,12.45
2023-05-22T21:46:37.474Z,11.77
2023-05-22T21:49:04.255Z,11.55
2023-05-22T21:51:30.947Z,13.52
2023-05-22T21:53:57.985Z,13.43
2023-05-22T21:56:26.061Z,13.00
2023-05-22T21:58:52.733Z,14.20
2023-05-22T22:01:19.433Z,13.45
2023-05-22T22:03:46.089Z,13.30
2023-05-22T22:06:12.730Z,14.43
2023-05-22T22:08:39.511Z,14.55
2023-05-22T22:11:06.253Z,12.95
2023-05-22T22:13:34.339Z,14.60
2023-05-22T22:16:01.094Z,12.68
2023-05-22T22:18:27.930Z,12.40
2023-05-22T22:20:54.625Z,12.43
2023-05-22T22:23:21.493Z,16.13
2023-05-22T22:25:48.253Z,13.68
2023-05-22T22:28:15.144Z,12.80
2023-05-22T22:30:43.270Z,13.83
2023-05-22T22:33:10.087Z,13.95
2023-05-22T22:35:36.757Z,12.48
2023-05-22T22:38:03.517Z,11.93
2023-05-22T22:40:30.195Z,13.15
2023-05-22T22:42:56.938Z,14.60
2023-05-22T22:45:23.988Z,11.63
2023-05-22T22:47:52.056Z,13.32
2023-05-22T22:50:18.796Z,13.98
2023-05-22T22:52:45.601Z,16.17
2023-05-22T22:55:12.694Z,13.37
2023-05-22T22:57:39.407Z,16.08
2023-05-22T23:00:07.346Z,17.15
2023-05-22T23:02:34.074Z,14.57
2023-05-22T23:05:02.285Z,12.73
2023-05-22T23:07:29.060Z,14.20
2023-05-22T23:09:55.705Z,13.05
2023-05-22T23:12:22.818Z,12.07
2023-05-22T23:14:50.261Z,11.98
2023-05-22T23:17:16.988Z,16.45
2023-05-22T23:19:43.667Z,12.60
2023-05-22T23:22:11.897Z,13.18
2023-05-22T23:24:38.539Z,11.52
2023-05-22T23:27:05.529Z,13.48
2023-05-22T23:29:32.271Z,12.60
2023-05-22T23:31:59.154Z,12.83
2023-05-22T23:34:26.020Z,16.35
2023-05-22T23:36:52.672Z,14.48
2023-05-22T23:39:20.872Z,12.48
2023-05-22T23:41:47.565Z,13.27
2023-05-22T23:44:14.255Z,11.97
2023-05-22T23:46:41.030Z,12.57
2023-05-22T23:49:08.122Z,15.48
2023-05-22T23:51:34.821Z,13.73
2023-05-22T23:54:01.504Z,12.20
2023-05-22T23:56:29.591Z,12.37
2023-05-22T23:58:56.383Z,12.45
